www.cux-wetter.de
Wetterdaten: Woche 01.11.10 - 07.11.10 (KW44)
Datum Zeit Temp. A. Feuchte A. Luftdruck Regen Wind Richtung Sonnenschein Solar Taupunkt Windchill Windben
01.11.2010 00:00 9,7 C 93 % 1006,5 hPa 0,0 l/m 10,3 km/h (2 Bft) O-SO 0,00 h 0 W/m 8,7 C 7,3 C 10,3 km/h (2 Bft)
01.11.2010 01:00 9,8 C 94 % 1006,5 hPa 0,0 l/m 7,7 km/h (2 Bft) SO 0,00 h 0 W/m 8,9 C 8,3 C 7,7 km/h (2 Bft)
01.11.2010 02:00 9,7 C 94 % 1006,5 hPa 0,0 l/m 7,2 km/h (2 Bft) SO 0,00 h 0 W/m 8,8 C 8,1 C 7,2 km/h (2 Bft)
01.11.2010 03:00 9,8 C 93 % 1006,5 hPa 0,0 l/m 5,1 km/h (1 Bft) O 0,00 h 0 W/m 8,8 C 9,1 C 5,1 km/h (1 Bft)
01.11.2010 04:00 9,8 C 93 % 1006,5 hPa 0,0 l/m 5,2 km/h (1 Bft) O 0,00 h 0 W/m 8,7 C 9,5 C 5,2 km/h (1 Bft)
01.11.2010 05:00 9,8 C 93 % 1006,5 hPa 0,0 l/m 5,3 km/h (1 Bft) O 0,00 h 0 W/m 8,7 C 9,1 C 5,3 km/h (1 Bft)
01.11.2010 06:00 9,8 C 93 % 1007,3 hPa 0,0 l/m 4,0 km/h (1 Bft) O-NO 0,00 h 0 W/m 8,7 C 9,6 C 4,0 km/h (1 Bft)
01.11.2010 07:00 9,8 C 93 % 1007,8 hPa 0,0 l/m 3,1 km/h (1 Bft) NO 0,00 h 0 W/m 8,8 C 9,8 C 3,1 km/h (1 Bft)
01.11.2010 08:00 9,9 C 93 % 1008,5 hPa 0,0 l/m 6,3 km/h (2 Bft) N-NO 0,00 h 0 W/m 8,9 C 9,4 C 6,3 km/h (2 Bft)
01.11.2010 09:00 10,0 C 93 % 1009,0 hPa 0,0 l/m 4,3 km/h (1 Bft) NO 0,00 h 0 W/m 8,9 C 9,8 C 4,3 km/h (1 Bft)
01.11.2010 10:00 10,2 C 93 % 1009,0 hPa 0,0 l/m 2,9 km/h (1 Bft) NO 0,00 h 0 W/m 9,1 C 10,2 C 2,9 km/h (1 Bft)
01.11.2010 11:00 10,4 C 92 % 1009,5 hPa 0,0 l/m 3,1 km/h (1 Bft) O 0,00 h 0 W/m 9,2 C 10,2 C 3,1 km/h (1 Bft)
01.11.2010 12:00 10,5 C 92 % 1009,5 hPa 0,0 l/m 4,5 km/h (1 Bft) NO 0,00 h 0 W/m 9,3 C 10,4 C 4,5 km/h (1 Bft)
01.11.2010 13:00 10,5 C 92 % 1009,5 hPa 0,0 l/m 5,4 km/h (1 Bft) N-NO 0,00 h 0 W/m 9,3 C 10,2 C 5,4 km/h (1 Bft)
01.11.2010 14:00 10,4 C 92 % 1009,5 hPa 0,0 l/m 5,1 km/h (1 Bft) N-NO 0,00 h 0 W/m 9,2 C 10,2 C 5,1 km/h (1 Bft)
01.11.2010 15:00 10,5 C 91 % 1009,5 hPa 0,0 l/m 4,7 km/h (1 Bft) N-NO 0,00 h 0 W/m 9,1 C 10,3 C 4,7 km/h (1 Bft)
01.11.2010 16:00 10,3 C 91 % 1009,7 hPa 0,0 l/m 7,0 km/h (2 Bft) N 0,00 h 0 W/m 8,9 C 9,3 C 7,0 km/h (2 Bft)
01.11.2010 17:00 10,2 C 91 % 1010,5 hPa 0,0 l/m 8,9 km/h (2 Bft) N-NO 0,00 h 0 W/m 8,8 C 8,4 C 8,9 km/h (2 Bft)
01.11.2010 18:00 10,1 C 92 % 1011,0 hPa 0,0 l/m 0,7 km/h (0 Bft) N-NO 0,00 h 0 W/m 8,8 C 10,1 C 0,7 km/h (0 Bft)
01.11.2010 19:00 10,1 C 91 % 1011,2 hPa 0,0 l/m 0,1 km/h (0 Bft) O 0,00 h 0 W/m 8,6 C 10,1 C 0,1 km/h (0 Bft)
01.11.2010 20:00 10,1 C 89 % 1011,5 hPa 0,0 l/m 0,9 km/h (0 Bft) O 0,00 h 0 W/m 8,5 C 10,1 C 0,9 km/h (0 Bft)
01.11.2010 21:00 10,0 C 89 % 1011,5 hPa 0,0 l/m 0,4 km/h (0 Bft) SO 0,00 h 0 W/m 8,3 C 10,0 C 0,4 km/h (0 Bft)
01.11.2010 22:00 10,0 C 89 % 1011,5 hPa 0,0 l/m 0,5 km/h (0 Bft) SW 0,00 h 0 W/m 8,3 C 10,0 C 0,5 km/h (0 Bft)
01.11.2010 23:00 10,0 C 89 % 1011,5 hPa 0,0 l/m 2,0 km/h (1 Bft) W-SW 0,00 h 0 W/m 8,2 C 10,0 C 2,0 km/h (1 Bft)
02.11.2010 00:00 9,9 C 89 % 1011,5 hPa 0,0 l/m 4,3 km/h (1 Bft) W-SW 0,00 h 0 W/m 8,1 C 9,8 C 4,3 km/h (1 Bft)
02.11.2010 01:00 9,8 C 88 % 1011,3 hPa 0,0 l/m 3,9 km/h (1 Bft) S-SW 0,00 h 0 W/m 7,9 C 9,8 C 3,9 km/h (1 Bft)
02.11.2010 02:00 9,8 C 88 % 1010,5 hPa 0,0 l/m 7,1 km/h (2 Bft) SW 0,00 h 0 W/m 7,9 C 8,9 C 7,1 km/h (2 Bft)
02.11.2010 03:00 9,6 C 89 % 1010,5 hPa 0,0 l/m 8,4 km/h (2 Bft) SW 0,00 h 0 W/m 8,0 C 8,0 C 8,4 km/h (2 Bft)
02.11.2010 04:00 9,3 C 90 % 1010,2 hPa 0,0 l/m 13,7 km/h (3 Bft) W-SW 0,00 h 0 W/m 7,7 C 4,9 C 13,7 km/h (3 Bft)
02.11.2010 05:00 9,0 C 90 % 1010,5 hPa 0,0 l/m 14,1 km/h (3 Bft) W-SW 0,00 h 0 W/m 7,5 C 4,4 C 14,1 km/h (3 Bft)
02.11.2010 06:00 8,9 C 91 % 1009,8 hPa 0,0 l/m 19,7 km/h (3 Bft) W-SW 0,00 h 0 W/m 7,4 C 2,0 C 19,7 km/h (3 Bft)
02.11.2010 07:00 8,8 C 92 % 1009,5 hPa 0,0 l/m 20,9 km/h (4 Bft) W-SW 0,00 h 0 W/m 7,5 C 1,6 C 20,9 km/h (4 Bft)
02.11.2010 08:00 8,8 C 92 % 1009,3 hPa 0,0 l/m 18,7 km/h (3 Bft) W-SW 0,00 h 0 W/m 7,6 C 2,3 C 18,7 km/h (3 Bft)
02.11.2010 09:00 9,0 C 91 % 1008,8 hPa 0,0 l/m 22,5 km/h (4 Bft) SW 0,00 h 0 W/m 7,6 C 1,3 C 22,5 km/h (4 Bft)
02.11.2010 10:00 9,3 C 90 % 1008,3 hPa 0,0 l/m 23,3 km/h (4 Bft) SW 0,00 h 0 W/m 7,8 C 1,5 C 23,3 km/h (4 Bft)
02.11.2010 11:00 9,8 C 89 % 1007,0 hPa 0,0 l/m 22,3 km/h (4 Bft) S-SW 0,00 h 0 W/m 8,0 C 2,5 C 22,3 km/h (4 Bft)
02.11.2010 12:00 9,9 C 89 % 1006,5 hPa 0,6 l/m 19,9 km/h (4 Bft) SW 0,00 h 0 W/m 8,2 C 3,2 C 19,9 km/h (4 Bft)
02.11.2010 13:00 9,9 C 91 % 1006,3 hPa 0,3 l/m 20,4 km/h (4 Bft) SW 0,00 h 0 W/m 8,6 C 3,0 C 20,4 km/h (4 Bft)
02.11.2010 14:00 10,0 C 93 % 1005,5 hPa 0,0 l/m 25,2 km/h (4 Bft) SW 0,00 h 0 W/m 8,9 C 1,9 C 25,2 km/h (4 Bft)
02.11.2010 15:00 10,4 C 94 % 1005,5 hPa 0,3 l/m 33,8 km/h (5 Bft) W-SW 0,00 h 0 W/m 9,5 C 0,5 C 33,8 km/h (5 Bft)
02.11.2010 16:00 10,6 C 95 % 1005,5 hPa 0,0 l/m 31,8 km/h (5 Bft) W-SW 0,00 h 0 W/m 9,9 C 1,2 C 31,8 km/h (5 Bft)
02.11.2010 17:00 10,9 C 95 % 1005,5 hPa 0,0 l/m 31,3 km/h (5 Bft) W-SW 0,00 h 0 W/m 10,1 C 1,7 C 31,3 km/h (5 Bft)
02.11.2010 18:00 11,1 C 94 % 1005,5 hPa 0,0 l/m 29,6 km/h (5 Bft) W-SW 0,00 h 0 W/m 10,1 C 2,3 C 29,6 km/h (5 Bft)
02.11.2010 19:00 11,0 C 93 % 1005,6 hPa 0,0 l/m 27,8 km/h (5 Bft) W-SW 0,00 h 0 W/m 9,9 C 2,5 C 27,8 km/h (5 Bft)
02.11.2010 20:00 11,1 C 93 % 1005,5 hPa 0,0 l/m 28,6 km/h (5 Bft) W-SW 0,00 h 0 W/m 10,0 C 2,5 C 28,6 km/h (5 Bft)
02.11.2010 21:00 11,1 C 92 % 1004,8 hPa 0,0 l/m 29,2 km/h (5 Bft) W-SW 0,00 h 0 W/m 9,9 C 2,4 C 29,2 km/h (5 Bft)
02.11.2010 22:00 11,2 C 92 % 1004,5 hPa 0,0 l/m 29,6 km/h (5 Bft) W-SW 0,00 h 0 W/m 9,9 C 2,5 C 29,6 km/h (5 Bft)
02.11.2010 23:00 11,4 C 90 % 1003,7 hPa 0,0 l/m 30,2 km/h (5 Bft) W-SW 0,00 h 0 W/m 9,8 C 2,7 C 30,2 km/h (5 Bft)
03.11.2010 00:00 11,4 C 90 % 1003,4 hPa 0,6 l/m 29,2 km/h (5 Bft) W-SW 0,00 h 0 W/m 9,8 C 2,8 C 29,2 km/h (5 Bft)
03.11.2010 01:00 11,2 C 92 % 1002,1 hPa 0,3 l/m 34,5 km/h (5 Bft) W-SW 0,00 h 0 W/m 10,0 C 1,6 C 34,5 km/h (5 Bft)
03.11.2010 02:00 11,4 C 91 % 1001,5 hPa 0,0 l/m 38,3 km/h (6 Bft) W-SW 0,00 h 0 W/m 10,0 C 1,3 C 38,3 km/h (6 Bft)
03.11.2010 03:00 11,5 C 92 % 1000,8 hPa 0,9 l/m 37,8 km/h (6 Bft) W-SW 0,00 h 0 W/m 10,2 C 1,4 C 37,8 km/h (6 Bft)
03.11.2010 04:00 11,4 C 94 % 1000,5 hPa 0,6 l/m 38,8 km/h (6 Bft) W-SW 0,00 h 0 W/m 10,4 C 1,1 C 38,8 km/h (6 Bft)
03.11.2010 05:00 11,3 C 95 % 1000,0 hPa 1,2 l/m 37,7 km/h (5 Bft) W-SW 0,00 h 0 W/m 10,5 C 1,2 C 37,7 km/h (5 Bft)
03.11.2010 06:00 11,5 C 95 % 999,6 hPa 4,2 l/m 39,1 km/h (6 Bft) W-SW 0,00 h 0 W/m 10,7 C 1,2 C 39,1 km/h (6 Bft)
03.11.2010 07:00 11,2 C 93 % 1000,3 hPa 6,6 l/m 32,1 km/h (5 Bft) W 0,00 h 0 W/m 10,1 C 1,9 C 32,1 km/h (5 Bft)
03.11.2010 08:00 10,9 C 92 % 1001,1 hPa 0,3 l/m 30,9 km/h (5 Bft) W 0,00 h 0 W/m 9,7 C 1,8 C 30,9 km/h (5 Bft)
03.11.2010 09:00 11,4 C 91 % 1001,6 hPa 0,0 l/m 29,3 km/h (5 Bft) W 0,00 h 0 W/m 10,1 C 2,8 C 29,3 km/h (5 Bft)
03.11.2010 10:00 11,8 C 91 % 1002,5 hPa 0,0 l/m 27,5 km/h (5 Bft) W 0,00 h 0 W/m 10,3 C 3,8 C 27,5 km/h (5 Bft)
03.11.2010 11:00 12,0 C 87 % 1003,4 hPa 0,0 l/m 26,9 km/h (4 Bft) W 0,00 h 0 W/m 9,9 C 4,1 C 26,9 km/h (4 Bft)
03.11.2010 12:00 11,9 C 85 % 1004,1 hPa 0,0 l/m 24,6 km/h (4 Bft) W 0,00 h 0 W/m 9,5 C 4,6 C 24,6 km/h (4 Bft)
03.11.2010 13:00 11,8 C 84 % 1004,5 hPa 0,0 l/m 27,0 km/h (5 Bft) W-NW 0,00 h 0 W/m 9,2 C 3,8 C 27,0 km/h (5 Bft)
03.11.2010 14:00 11,6 C 84 % 1005,0 hPa 0,3 l/m 31,7 km/h (5 Bft) W-NW 0,00 h 0 W/m 9,0 C 2,7 C 31,7 km/h (5 Bft)
03.11.2010 15:00 10,7 C 84 % 1006,0 hPa 0,3 l/m 29,8 km/h (5 Bft) W-NW 0,00 h 0 W/m 8,2 C 1,8 C 29,8 km/h (5 Bft)
03.11.2010 16:00 10,7 C 84 % 1006,5 hPa 0,0 l/m 26,7 km/h (4 Bft) W 0,00 h 0 W/m 8,0 C 2,4 C 26,7 km/h (4 Bft)
03.11.2010 17:00 10,7 C 85 % 1007,2 hPa 0,0 l/m 26,7 km/h (4 Bft) W 0,00 h 0 W/m 8,3 C 2,5 C 26,7 km/h (4 Bft)
03.11.2010 18:00 10,6 C 86 % 1007,9 hPa 0,0 l/m 25,2 km/h (4 Bft) W 0,00 h 0 W/m 8,4 C 2,7 C 25,2 km/h (4 Bft)
03.11.2010 19:00 10,6 C 87 % 1008,5 hPa 0,6 l/m 23,5 km/h (4 Bft) W 0,00 h 0 W/m 8,5 C 3,0 C 23,5 km/h (4 Bft)
03.11.2010 20:00 10,1 C 89 % 1008,5 hPa 0,9 l/m 18,8 km/h (3 Bft) W 0,00 h 0 W/m 8,3 C 3,9 C 18,8 km/h (3 Bft)
03.11.2010 21:00 10,2 C 89 % 1008,5 hPa 0,0 l/m 26,5 km/h (4 Bft) W 0,00 h 0 W/m 8,4 C 1,8 C 26,5 km/h (4 Bft)
03.11.2010 22:00 10,4 C 87 % 1008,6 hPa 0,0 l/m 29,0 km/h (5 Bft) W-SW 0,00 h 0 W/m 8,3 C 1,4 C 29,0 km/h (5 Bft)
03.11.2010 23:00 10,5 C 86 % 1008,5 hPa 0,0 l/m 27,5 km/h (5 Bft) W 0,00 h 0 W/m 8,3 C 2,0 C 27,5 km/h (5 Bft)
04.11.2010 00:00 10,6 C 88 % 1008,5 hPa 0,0 l/m 20,4 km/h (4 Bft) W-SW 0,00 h 0 W/m 8,7 C 3,9 C 20,4 km/h (4 Bft)
04.11.2010 01:00 10,6 C 90 % 1008,4 hPa 0,0 l/m 23,2 km/h (4 Bft) W-SW 0,00 h 0 W/m 9,0 C 3,1 C 23,2 km/h (4 Bft)
04.11.2010 02:00 10,5 C 90 % 1008,0 hPa 0,3 l/m 21,1 km/h (4 Bft) W-SW 0,00 h 0 W/m 9,0 C 3,6 C 21,1 km/h (4 Bft)
04.11.2010 03:00 10,4 C 93 % 1007,5 hPa 0,9 l/m 22,8 km/h (4 Bft) W-SW 0,00 h 0 W/m 9,2 C 2,9 C 22,8 km/h (4 Bft)
04.11.2010 04:00 10,4 C 94 % 1007,5 hPa 0,6 l/m 22,6 km/h (4 Bft) W-SW 0,00 h 0 W/m 9,4 C 3,1 C 22,6 km/h (4 Bft)
04.11.2010 05:00 10,5 C 94 % 1007,5 hPa 0,9 l/m 20,9 km/h (4 Bft) W 0,00 h 0 W/m 9,6 C 3,8 C 20,9 km/h (4 Bft)
04.11.2010 06:00 10,5 C 94 % 1007,3 hPa 1,5 l/m 10,0 km/h (2 Bft) W-SW 0,00 h 0 W/m 9,6 C 8,2 C 10,0 km/h (2 Bft)
04.11.2010 07:00 10,7 C 94 % 1006,8 hPa 1,8 l/m 7,3 km/h (2 Bft) W-SW 0,00 h 0 W/m 9,7 C 9,9 C 7,3 km/h (2 Bft)
04.11.2010 08:00 11,0 C 94 % 1007,4 hPa 3,0 l/m 7,7 km/h (2 Bft) W-SW 0,00 h 0 W/m 10,0 C 10,0 C 7,7 km/h (2 Bft)
04.11.2010 09:00 11,2 C 95 % 1006,7 hPa 1,5 l/m 7,5 km/h (2 Bft) W-SW 0,00 h 0 W/m 10,3 C 10,4 C 7,5 km/h (2 Bft)
04.11.2010 10:00 11,9 C 96 % 1006,5 hPa 0,9 l/m 24,2 km/h (4 Bft) W 0,00 h 0 W/m 11,2 C 5,3 C 24,2 km/h (4 Bft)
04.11.2010 11:00 12,6 C 96 % 1007,5 hPa 0,0 l/m 35,2 km/h (5 Bft) W 0,00 h 0 W/m 12,0 C 3,5 C 35,2 km/h (5 Bft)
04.11.2010 12:00 12,8 C 95 % 1008,4 hPa 0,0 l/m 34,2 km/h (5 Bft) W-NW 0,00 h 0 W/m 12,0 C 3,9 C 34,2 km/h (5 Bft)
04.11.2010 13:00 12,8 C 95 % 1008,5 hPa 0,0 l/m 32,8 km/h (5 Bft) W 0,00 h 0 W/m 12,0 C 4,1 C 32,8 km/h (5 Bft)
04.11.2010 14:00 12,8 C 95 % 1008,5 hPa 0,6 l/m 34,2 km/h (5 Bft) W 0,00 h 0 W/m 12,0 C 4,0 C 34,2 km/h (5 Bft)
04.11.2010 15:00 13,0 C 95 % 1008,5 hPa 0,9 l/m 35,4 km/h (5 Bft) W 0,00 h 0 W/m 12,2 C 4,0 C 35,4 km/h (5 Bft)
04.11.2010 16:00 13,1 C 96 % 1008,5 hPa 0,9 l/m 33,3 km/h (5 Bft) W 0,00 h 0 W/m 12,4 C 4,6 C 33,3 km/h (5 Bft)
04.11.2010 17:00 13,2 C 96 % 1008,5 hPa 1,8 l/m 33,5 km/h (5 Bft) W 0,00 h 0 W/m 12,6 C 4,7 C 33,5 km/h (5 Bft)
04.11.2010 18:00 13,4 C 96 % 1008,5 hPa 0,9 l/m 34,6 km/h (5 Bft) W 0,00 h 0 W/m 12,7 C 4,7 C 34,6 km/h (5 Bft)
04.11.2010 19:00 13,4 C 95 % 1008,8 hPa 0,9 l/m 36,7 km/h (5 Bft) W 0,00 h 0 W/m 12,7 C 4,5 C 36,7 km/h (5 Bft)
04.11.2010 20:00 13,3 C 96 % 1008,5 hPa 3,0 l/m 37,0 km/h (5 Bft) W-SW 0,00 h 0 W/m 12,7 C 4,3 C 37,0 km/h (5 Bft)
04.11.2010 21:00 13,3 C 96 % 1008,5 hPa 3,0 l/m 39,7 km/h (6 Bft) W-SW 0,00 h 0 W/m 12,7 C 3,9 C 39,7 km/h (6 Bft)
04.11.2010 22:00 13,4 C 95 % 1007,8 hPa 3,0 l/m 43,0 km/h (6 Bft) W-SW 0,00 h 0 W/m 12,7 C 3,7 C 43,0 km/h (6 Bft)
04.11.2010 23:00 13,4 C 96 % 1007,0 hPa 3,6 l/m 44,1 km/h (6 Bft) W-SW 0,00 h 0 W/m 12,7 C 3,5 C 44,1 km/h (6 Bft)
05.11.2010 00:00 13,5 C 95 % 1006,5 hPa 1,2 l/m 43,6 km/h (6 Bft) W 0,00 h 0 W/m 12,8 C 3,7 C 43,6 km/h (6 Bft)
05.11.2010 01:00 13,5 C 95 % 1006,7 hPa 0,6 l/m 42,5 km/h (6 Bft) W 0,00 h 0 W/m 12,7 C 3,9 C 42,5 km/h (6 Bft)
05.11.2010 02:00 13,4 C 96 % 1007,1 hPa 0,6 l/m 38,4 km/h (6 Bft) W 0,00 h 0 W/m 12,8 C 4,2 C 38,4 km/h (6 Bft)
05.11.2010 03:00 13,3 C 96 % 1007,5 hPa 0,3 l/m 38,6 km/h (6 Bft) W 0,00 h 0 W/m 12,7 C 4,0 C 38,6 km/h (6 Bft)
05.11.2010 04:00 13,2 C 96 % 1007,5 hPa 0,3 l/m 41,3 km/h (6 Bft) W-NW 0,00 h 0 W/m 12,6 C 3,5 C 41,3 km/h (6 Bft)
05.11.2010 05:00 12,9 C 96 % 1007,9 hPa 0,0 l/m 38,1 km/h (6 Bft) W-NW 0,00 h 0 W/m 12,2 C 3,4 C 38,1 km/h (6 Bft)
05.11.2010 06:00 12,4 C 96 % 1008,5 hPa 0,3 l/m 34,1 km/h (5 Bft) W-NW 0,00 h 0 W/m 11,8 C 3,4 C 34,1 km/h (5 Bft)
05.11.2010 07:00 12,3 C 95 % 1009,3 hPa 0,0 l/m 29,9 km/h (5 Bft) W-NW 0,00 h 0 W/m 11,5 C 3,9 C 29,9 km/h (5 Bft)
05.11.2010 08:00 12,4 C 95 % 1010,3 hPa 0,0 l/m 30,5 km/h (5 Bft) W-NW 0,00 h 0 W/m 11,6 C 3,9 C 30,5 km/h (5 Bft)
05.11.2010 09:00 12,4 C 94 % 1011,3 hPa 0,0 l/m 25,8 km/h (4 Bft) W-NW 0,00 h 0 W/m 11,4 C 4,9 C 25,8 km/h (4 Bft)
05.11.2010 10:00 12,4 C 92 % 1012,3 hPa 0,0 l/m 25,4 km/h (4 Bft) W-NW 0,00 h 0 W/m 11,2 C 5,1 C 25,4 km/h (4 Bft)
05.11.2010 11:00 13,2 C 86 % 1012,5 hPa 0,0 l/m 24,4 km/h (4 Bft) W-NW 0,00 h 0 W/m 10,9 C 6,3 C 24,4 km/h (4 Bft)
05.11.2010 12:00 13,3 C 84 % 1013,4 hPa 0,0 l/m 20,8 km/h (4 Bft) W-NW 0,00 h 0 W/m 10,7 C 7,4 C 20,8 km/h (4 Bft)
05.11.2010 13:00 13,2 C 84 % 1013,5 hPa 0,0 l/m 20,3 km/h (4 Bft) W-NW 0,00 h 0 W/m 10,6 C 7,4 C 20,3 km/h (4 Bft)
05.11.2010 14:00 12,5 C 86 % 1013,5 hPa 0,0 l/m 23,8 km/h (4 Bft) W 0,00 h 0 W/m 10,3 C 5,6 C 23,8 km/h (4 Bft)
05.11.2010 15:00 12,2 C 87 % 1013,7 hPa 0,0 l/m 21,9 km/h (4 Bft) W 0,00 h 0 W/m 10,0 C 5,6 C 21,9 km/h (4 Bft)
05.11.2010 16:00 11,9 C 87 % 1013,5 hPa 0,0 l/m 17,7 km/h (3 Bft) W 0,00 h 0 W/m 9,9 C 6,6 C 17,7 km/h (3 Bft)
05.11.2010 17:00 11,7 C 88 % 1013,5 hPa 0,0 l/m 19,8 km/h (3 Bft) W 0,00 h 0 W/m 9,8 C 5,6 C 19,8 km/h (3 Bft)
05.11.2010 18:00 11,8 C 87 % 1013,5 hPa 0,0 l/m 21,5 km/h (4 Bft) W 0,00 h 0 W/m 9,7 C 5,2 C 21,5 km/h (4 Bft)
05.11.2010 19:00 11,8 C 87 % 1013,0 hPa 0,0 l/m 19,8 km/h (3 Bft) W-SW 0,00 h 0 W/m 9,7 C 5,7 C 19,8 km/h (3 Bft)
05.11.2010 20:00 11,6 C 89 % 1012,4 hPa 0,0 l/m 10,4 km/h (2 Bft) W-SW 0,00 h 0 W/m 9,8 C 9,4 C 10,4 km/h (2 Bft)
05.11.2010 21:00 11,2 C 90 % 1011,5 hPa 3,3 l/m 9,9 km/h (2 Bft) NW 0,00 h 0 W/m 9,6 C 9,2 C 9,9 km/h (2 Bft)
05.11.2010 22:00 10,3 C 89 % 1010,9 hPa 1,8 l/m 18,7 km/h (3 Bft) W 0,00 h 0 W/m 8,5 C 4,3 C 18,7 km/h (3 Bft)
05.11.2010 23:00 9,9 C 91 % 1010,0 hPa 1,8 l/m 17,8 km/h (3 Bft) W 0,00 h 0 W/m 8,5 C 4,0 C 17,8 km/h (3 Bft)
06.11.2010 00:00 9,8 C 92 % 1009,4 hPa 2,1 l/m 18,8 km/h (3 Bft) W 0,00 h 0 W/m 8,6 C 3,5 C 18,8 km/h (3 Bft)
06.11.2010 01:00 9,7 C 93 % 1008,5 hPa 0,9 l/m 20,9 km/h (4 Bft) W 0,00 h 0 W/m 8,6 C 2,7 C 20,9 km/h (4 Bft)
06.11.2010 02:00 9,6 C 93 % 1007,9 hPa 0,6 l/m 21,8 km/h (4 Bft) W 0,00 h 0 W/m 8,6 C 2,3 C 21,8 km/h (4 Bft)
06.11.2010 03:00 9,6 C 93 % 1007,1 hPa 0,3 l/m 26,3 km/h (4 Bft) W 0,00 h 0 W/m 8,5 C 1,0 C 26,3 km/h (4 Bft)
06.11.2010 04:00 9,6 C 94 % 1006,5 hPa 0,3 l/m 25,8 km/h (4 Bft) W 0,00 h 0 W/m 8,7 C 1,1 C 25,8 km/h (4 Bft)
06.11.2010 05:00 9,8 C 93 % 1005,8 hPa 0,0 l/m 23,2 km/h (4 Bft) W 0,00 h 0 W/m 8,8 C 2,1 C 23,2 km/h (4 Bft)
06.11.2010 06:00 9,9 C 93 % 1005,5 hPa 0,0 l/m 22,8 km/h (4 Bft) W 0,00 h 0 W/m 8,8 C 2,4 C 22,8 km/h (4 Bft)
06.11.2010 07:00 10,1 C 93 % 1005,5 hPa 0,3 l/m 23,2 km/h (4 Bft) N 0,00 h 0 W/m 8,9 C 2,6 C 23,2 km/h (4 Bft)
06.11.2010 08:00 9,5 C 90 % 1006,3 hPa 0,0 l/m 20,7 km/h (4 Bft) N-NO 0,00 h 0 W/m 8,0 C 2,5 C 20,7 km/h (4 Bft)
06.11.2010 09:00 9,8 C 87 % 1007,4 hPa 0,0 l/m 17,3 km/h (3 Bft) N 0,00 h 0 W/m 7,7 C 4,0 C 17,3 km/h (3 Bft)
06.11.2010 10:00 10,1 C 84 % 1007,7 hPa 0,3 l/m 18,9 km/h (3 Bft) N 0,00 h 0 W/m 7,5 C 3,9 C 18,9 km/h (3 Bft)
06.11.2010 11:00 10,4 C 83 % 1008,5 hPa 0,0 l/m 20,3 km/h (4 Bft) N 0,00 h 0 W/m 7,5 C 3,7 C 20,3 km/h (4 Bft)
06.11.2010 12:00 10,4 C 78 % 1008,5 hPa 0,0 l/m 19,5 km/h (3 Bft) N 0,00 h 0 W/m 6,8 C 4,1 C 19,5 km/h (3 Bft)
06.11.2010 13:00 10,3 C 78 % 1008,6 hPa 0,0 l/m 18,1 km/h (3 Bft) N 0,00 h 0 W/m 6,5 C 4,4 C 18,1 km/h (3 Bft)
06.11.2010 14:00 10,3 C 75 % 1009,0 hPa 0,0 l/m 17,8 km/h (3 Bft) N 0,00 h 0 W/m 6,0 C 4,4 C 17,8 km/h (3 Bft)
06.11.2010 15:00 9,8 C 74 % 1009,0 hPa 0,0 l/m 17,6 km/h (3 Bft) N 0,00 h 0 W/m 5,3 C 4,0 C 17,6 km/h (3 Bft)
06.11.2010 16:00 9,2 C 76 % 1008,6 hPa 0,0 l/m 14,8 km/h (3 Bft) N-NW 0,00 h 0 W/m 5,1 C 4,4 C 14,8 km/h (3 Bft)
06.11.2010 17:00 8,8 C 77 % 1009,5 hPa 0,3 l/m 15,2 km/h (3 Bft) N 0,00 h 0 W/m 4,9 C 3,7 C 15,2 km/h (3 Bft)
06.11.2010 18:00 8,3 C 79 % 1009,5 hPa 0,0 l/m 5,7 km/h (2 Bft) NW 0,00 h 0 W/m 5,0 C 7,4 C 5,7 km/h (2 Bft)
06.11.2010 19:00 8,1 C 79 % 1009,5 hPa 0,0 l/m 11,8 km/h (2 Bft) N 0,00 h 0 W/m 4,8 C 4,6 C 11,8 km/h (2 Bft)
06.11.2010 20:00 7,7 C 82 % 1009,5 hPa 0,0 l/m 6,2 km/h (2 Bft) N 0,00 h 0 W/m 4,8 C 6,6 C 6,2 km/h (2 Bft)
06.11.2010 21:00 7,4 C 83 % 1009,3 hPa 0,0 l/m 0,1 km/h (0 Bft) N 0,00 h 0 W/m 4,7 C 7,4 C 0,1 km/h (0 Bft)
06.11.2010 22:00 6,8 C 83 % 1008,8 hPa 0,0 l/m 0,0 km/h (0 Bft) N 0,00 h 0 W/m 4,1 C 6,8 C 0,0 km/h (0 Bft)
06.11.2010 23:00 6,5 C 84 % 1008,5 hPa 0,0 l/m 0,0 km/h (0 Bft) N 0,00 h 0 W/m 4,1 C 6,5 C 0,0 km/h (0 Bft)
07.11.2010 00:00 6,3 C 85 % 1008,5 hPa 0,0 l/m 0,0 km/h (0 Bft) N 0,00 h 0 W/m 4,0 C 6,3 C 0,0 km/h (0 Bft)
07.11.2010 01:00 6,0 C 86 % 1007,8 hPa 0,3 l/m 1,0 km/h (0 Bft) SW 0,00 h 0 W/m 3,7 C 6,0 C 1,0 km/h (0 Bft)
07.11.2010 02:00 6,2 C 86 % 1007,5 hPa 0,0 l/m 2,3 km/h (1 Bft) N-NO 0,00 h 0 W/m 4,0 C 5,6 C 2,3 km/h (1 Bft)
07.11.2010 03:00 6,2 C 87 % 1007,1 hPa 0,0 l/m 1,1 km/h (1 Bft) N-NO 0,00 h 0 W/m 4,2 C 6,2 C 1,1 km/h (1 Bft)
07.11.2010 04:00 6,3 C 86 % 1006,5 hPa 0,0 l/m 0,0 km/h (0 Bft) N 0,00 h 0 W/m 4,1 C 6,3 C 0,0 km/h (0 Bft)
07.11.2010 05:00 5,7 C 86 % 1006,5 hPa 0,0 l/m 0,0 km/h (0 Bft) N 0,00 h 0 W/m 3,5 C 5,7 C 0,0 km/h (0 Bft)
07.11.2010 06:00 5,5 C 86 % 1006,5 hPa 0,0 l/m 0,0 km/h (0 Bft) N 0,00 h 0 W/m 3,4 C 5,5 C 0,0 km/h (0 Bft)
07.11.2010 07:00 5,0 C 86 % 1006,5 hPa 0,0 l/m 0,0 km/h (0 Bft) N 0,00 h 0 W/m 2,9 C 5,0 C 0,0 km/h (0 Bft)
07.11.2010 08:00 4,4 C 87 % 1006,5 hPa 0,0 l/m 0,0 km/h (0 Bft) N 0,00 h 0 W/m 2,4 C 4,4 C 0,0 km/h (0 Bft)
07.11.2010 09:00 4,8 C 88 % 1006,5 hPa 0,0 l/m 2,2 km/h (1 Bft) N-NO 0,00 h 0 W/m 3,0 C 4,7 C 2,2 km/h (1 Bft)
07.11.2010 10:00 6,4 C 85 % 1006,5 hPa 0,0 l/m 3,1 km/h (1 Bft) NO 0,00 h 0 W/m 4,1 C 6,2 C 3,1 km/h (1 Bft)
07.11.2010 11:00 7,3 C 80 % 1006,5 hPa 0,0 l/m 5,9 km/h (2 Bft) NO 0,00 h 0 W/m 4,1 C 6,6 C 5,9 km/h (2 Bft)
07.11.2010 12:00 7,6 C 76 % 1005,7 hPa 0,0 l/m 5,9 km/h (2 Bft) O-NO 0,00 h 0 W/m 3,7 C 7,3 C 5,9 km/h (2 Bft)
07.11.2010 13:00 7,9 C 69 % 1004,6 hPa 0,0 l/m 6,3 km/h (2 Bft) O-NO 0,00 h 0 W/m 2,7 C 7,1 C 6,3 km/h (2 Bft)
07.11.2010 14:00 7,6 C 69 % 1004,5 hPa 0,0 l/m 2,1 km/h (1 Bft) NO 0,00 h 0 W/m 2,3 C 7,5 C 2,1 km/h (1 Bft)
07.11.2010 15:00 7,1 C 70 % 1003,7 hPa 0,0 l/m 1,9 km/h (1 Bft) O-NO 0,00 h 0 W/m 2,0 C 7,0 C 1,9 km/h (1 Bft)
07.11.2010 16:00 6,0 C 72 % 1003,5 hPa 0,0 l/m 0,1 km/h (0 Bft) N 0,00 h 0 W/m 1,3 C 6,0 C 0,1 km/h (0 Bft)
07.11.2010 17:00 4,7 C 73 % 1003,3 hPa 0,0 l/m 0,0 km/h (0 Bft) N 0,00 h 0 W/m 0,3 C 4,7 C 0,0 km/h (0 Bft)
07.11.2010 18:00 4,0 C 75 % 1002,6 hPa 0,0 l/m 0,0 km/h (0 Bft) N 0,00 h 0 W/m 0,0 C 4,0 C 0,0 km/h (0 Bft)
07.11.2010 19:00 3,5 C 77 % 1002,5 hPa 0,0 l/m 0,0 km/h (0 Bft) N 0,00 h 0 W/m -0,1 C 3,5 C 0,0 km/h (0 Bft)
07.11.2010 20:00 3,0 C 78 % 1001,9 hPa 0,0 l/m 0,0 km/h (0 Bft) N 0,00 h 0 W/m -0,4 C 3,0 C 0,0 km/h (0 Bft)
07.11.2010 21:00 2,6 C 80 % 1001,4 hPa 0,0 l/m 0,0 km/h (0 Bft) N 0,00 h 0 W/m -0,5 C 2,6 C 0,0 km/h (0 Bft)
07.11.2010 22:00 2,2 C 80 % 1000,5 hPa 0,0 l/m 0,0 km/h (0 Bft) N 0,00 h 0 W/m -0,8 C 2,2 C 0,0 km/h (0 Bft)
07.11.2010 23:00 2,0 C 81 % 999,2 hPa 0,0 l/m 0,0 km/h (0 Bft) N 0,00 h 0 W/m -0,9 C 2,0 C 0,0 km/h (0 Bft)
Min-Datum _ 07.11.10 07.11.10 07.11.10 - 01.11.10 - - - 07.11.10 02.11.10 01.11.10
_ Min-Zeit 22:40 13:39 23:45 - 06:59 - - - 22:40 07:44 06:59
Minimum _ 2,0 C 67 % 998,5 hPa - 0,0 km/h (0 Bft) - - - -0,9 C -2,0 C 0,0 km/h (0 Bft)
Max-Datum _ 05.11.10 04.11.10 05.11.10 03.11.10 05.11.10 - 01.11.10 01.11.10 04.11.10 05.11.10 05.11.10
_ Max-Zeit 12:09 10:29 15:39 07:14 01:19 - 00:04 00:04 18:45 21:14 01:19
Maximum _ 13,7 C 96 % 1014,5 hPa 6,6 l/m 51,1 km/h
W (7 Bft)
- 0,00 h 0 W/m 12,9 C 11,5 C 51,1 km/h
W (7 Bft)
Durchschnitt _ 10,0 C 89 % 1007,5 hPa #63,6 l/m 18,2 km/h (3 Bft) W #0 min. 0 W/m 8,3 C 5,0 C 18,2 km/h (3 Bft)
copyright by Holger Just